Time;durP1;ratioP1;P1;durP2;ratioP2;P2;SDS_P1;SDS_P2;PMS_P1;PMS_P2;Temp;Humidity;BMP_temperature;BMP_pressure;BME280_temperature;BME280_humidity;BME280_pressure;Samples;Min_cycle;Max_cycle;Signal;HPM_P1;HPM_P2
2022/05/14 00:01:15;;;;;;;4.30;1.10;;;17.10;50.00;;;;;;5038817;28;20033;-64
2022/05/14 00:03:42;;;;;;;5.00;1.30;;;17.10;49.90;;;;;;5038994;28;20021;-64
2022/05/14 00:06:19;;;;;;;5.85;1.25;;;17.10;49.90;;;;;;5034078;28;20035;-64
2022/05/14 00:08:45;;;;;;;5.57;1.30;;;17.00;50.00;;;;;;5038304;28;20025;-64
2022/05/14 00:13:55;;;;;;;5.22;1.30;;;17.00;51.20;;;;;;5035030;28;20408;-64
2022/05/14 00:16:23;;;;;;;6.70;1.27;;;16.90;50.50;;;;;;5040185;28;20044;-65
2022/05/14 00:18:49;;;;;;;6.00;1.33;;;16.90;50.60;;;;;;5034885;28;20037;-65
2022/05/14 00:21:16;;;;;;;5.07;1.27;;;16.90;50.90;;;;;;5040055;28;20074;-65
2022/05/14 00:23:41;;;;;;;4.93;1.20;;;16.80;50.90;;;;;;5036459;28;20033;-65
2022/05/14 00:26:07;;;;;;;5.28;1.20;;;16.80;51.10;;;;;;5032444;28;20028;-65
2022/05/14 00:28:33;;;;;;;5.20;1.20;;;16.80;51.30;;;;;;5043901;28;20132;-65
2022/05/14 00:30:59;;;;;;;4.47;1.10;;;16.70;51.30;;;;;;5041141;28;20022;-65
2022/05/14 00:33:25;;;;;;;8.63;1.30;;;16.70;51.30;;;;;;5034019;28;20045;-65
2022/05/14 00:35:51;;;;;;;4.60;1.15;;;16.60;51.40;;;;;;5029440;28;20029;-65
2022/05/14 00:38:17;;;;;;;6.93;1.48;;;16.60;51.60;;;;;;5045332;28;20033;-65
2022/05/14 00:40:46;;;;;;;5.35;1.20;;;16.50;51.50;;;;;;5042664;28;20044;-65
2022/05/14 00:43:13;;;;;;;5.03;1.20;;;16.50;51.80;;;;;;5037733;28;20040;-65
2022/05/14 00:45:41;;;;;;;7.57;1.30;;;16.40;51.60;;;;;;5034173;28;20036;-65
2022/05/14 00:48:09;;;;;;;6.72;1.35;;;16.40;51.70;;;;;;5039043;28;20028;-65
2022/05/14 00:50:44;;;;;;;4.50;1.30;;;16.40;52.20;;;;;;5036224;28;20400;-65
2022/05/14 00:53:20;;;;;;;7.30;1.50;;;16.30;52.60;;;;;;5035011;28;20123;-65
2022/05/14 00:55:50;;;;;;;6.35;1.50;;;16.30;53.00;;;;;;5034432;28;20033;-65
2022/05/14 00:58:42;;;;;;;4.50;1.20;;;16.30;53.10;;;;;;5036145;28;20032;-65
2022/05/14 01:01:08;;;;;;;5.25;1.35;;;16.20;53.60;;;;;;5038983;28;20028;-65
2022/05/14 01:03:34;;;;;;;7.22;1.70;;;16.20;53.90;;;;;;5037482;28;20029;-64
2022/05/14 01:06:03;;;;;;;5.88;1.60;;;16.20;54.00;;;;;;5038643;28;20484;-64
2022/05/14 01:08:30;;;;;;;5.80;1.35;;;16.20;54.10;;;;;;5032749;28;20029;-65
2022/05/14 01:10:57;;;;;;;3.53;1.30;;;16.10;54.30;;;;;;5034680;28;20033;-65
2022/05/14 01:13:23;;;;;;;5.43;1.60;;;16.20;54.30;;;;;;5043503;28;20043;-65
2022/05/14 01:15:53;;;;;;;6.30;1.65;;;16.20;54.40;;;;;;5041376;28;20028;-64
2022/05/14 01:18:22;;;;;;;4.03;1.20;;;16.10;54.80;;;;;;5031463;28;20043;-65
2022/05/14 01:21:03;;;;;;;5.28;1.40;;;16.10;54.80;;;;;;5039655;28;20044;-65
2022/05/14 01:26:27;;;;;;;4.20;1.50;;;16.10;54.50;;;;;;5038309;28;20037;-64
2022/05/14 01:26:29;;;;;;;4.88;1.20;;;16.10;54.30;;;;;;5036146;28;20028;-65
2022/05/14 01:29:04;;;;;;;5.67;1.40;;;16.00;55.60;;;;;;5028945;28;20029;-65
2022/05/14 01:31:30;;;;;;;5.13;1.30;;;16.30;55.10;;;;;;5029179;28;20053;-65
2022/05/14 01:34:00;;;;;;;4.85;1.50;;;16.00;55.30;;;;;;5036450;28;20488;-64
2022/05/14 01:36:26;;;;;;;5.63;1.50;;;16.00;55.70;;;;;;5040701;28;20021;-65
2022/05/14 01:38:55;;;;;;;5.25;1.40;;;15.90;55.70;;;;;;5035197;28;20127;-65
2022/05/14 01:41:21;;;;;;;6.30;1.70;;;15.90;55.80;;;;;;5036079;28;20432;-65
2022/05/14 01:43:47;;;;;;;4.13;1.35;;;15.90;55.90;;;;;;5039200;28;20409;-65
2022/05/14 01:46:13;;;;;;;4.15;1.20;;;15.90;56.00;;;;;;5033195;28;20080;-65
2022/05/14 01:48:39;;;;;;;5.75;1.67;;;15.90;56.20;;;;;;5037827;28;20446;-65
2022/05/14 01:51:05;;;;;;;6.15;1.67;;;15.90;56.40;;;;;;5037563;28;20477;-65
2022/05/14 01:53:31;;;;;;;7.88;1.83;;;15.90;56.60;;;;;;5036387;28;20037;-65
2022/05/14 01:55:57;;;;;;;7.93;2.15;;;15.90;56.40;;;;;;5030151;28;20033;-65
2022/05/14 01:58:38;;;;;;;4.18;1.45;;;15.80;56.30;;;;;;5032102;28;20759;-65
2022/05/14 02:01:22;;;;;;;;;;;15.80;56.40;;;;;;5039146;28;20057;-65
2022/05/14 02:03:51;;;;;;;6.85;1.77;;;15.80;56.10;;;;;;5037392;28;19916;-65
2022/05/14 02:06:17;;;;;;;5.95;1.70;;;15.70;56.00;;;;;;5037429;28;20115;-65
2022/05/14 02:08:43;;;;;;;5.82;1.52;;;15.60;56.10;;;;;;5030152;28;20040;-65
2022/05/14 02:11:10;;;;;;;6.80;1.48;;;15.60;56.10;;;;;;5031092;28;20030;-64
2022/05/14 02:13:36;;;;;;;3.83;1.40;;;15.60;56.10;;;;;;5031554;28;20034;-64
2022/05/14 02:16:03;;;;;;;4.88;1.45;;;15.50;57.40;;;;;;5029654;28;20033;-65
2022/05/14 02:18:29;;;;;;;5.00;1.50;;;15.50;56.60;;;;;;5031242;28;20033;-64
2022/05/14 02:20:54;;;;;;;6.22;1.60;;;15.50;56.50;;;;;;5032717;28;20033;-65
2022/05/14 02:23:20;;;;;;;7.53;1.52;;;15.40;56.50;;;;;;5031878;28;20433;-65
2022/05/14 02:25:47;;;;;;;6.47;1.40;;;15.40;56.60;;;;;;5030043;28;20033;-65
2022/05/14 02:28:13;;;;;;;6.03;1.52;;;15.40;56.60;;;;;;5033353;28;20022;-65
2022/05/14 02:30:39;;;;;;;5.00;1.33;;;15.40;56.60;;;;;;5028887;28;20029;-65
2022/05/14 02:33:05;;;;;;;4.22;1.30;;;15.50;56.70;;;;;;5030120;28;20021;-65
2022/05/14 02:35:31;;;;;;;6.55;1.50;;;15.40;56.80;;;;;;5040878;28;20108;-64
2022/05/14 02:37:57;;;;;;;6.65;1.70;;;15.50;56.90;;;;;;5028894;28;20151;-64
2022/05/14 02:40:23;;;;;;;7.30;1.73;;;15.50;57.00;;;;;;5030126;28;20468;-65
2022/05/14 02:42:48;;;;;;;7.40;2.00;;;15.50;57.20;;;;;;5037131;28;20037;-65
2022/05/14 02:45:14;;;;;;;4.22;1.45;;;15.50;57.30;;;;;;5033374;28;20463;-65
2022/05/14 02:47:40;;;;;;;5.15;1.60;;;15.50;57.60;;;;;;5030828;28;20570;-64
2022/05/14 02:50:08;;;;;;;3.85;1.50;;;15.50;57.70;;;;;;5029046;28;20040;-65
2022/05/14 02:52:34;;;;;;;5.70;1.70;;;15.50;58.00;;;;;;5032579;28;20036;-65
2022/05/14 02:55:00;;;;;;;6.13;1.60;;;15.50;58.40;;;;;;5039599;28;20033;-65
2022/05/14 02:57:26;;;;;;;5.10;1.67;;;15.50;58.50;;;;;;5036563;28;20022;-65
2022/05/14 02:59:51;;;;;;;4.90;1.60;;;15.50;58.80;;;;;;5031369;28;20481;-64
2022/05/14 03:02:17;;;;;;;4.93;1.63;;;15.50;58.60;;;;;;5030338;28;20033;-65
2022/05/14 03:04:44;;;;;;;5.15;1.70;;;15.50;58.50;;;;;;5044818;28;20060;-65
2022/05/14 03:07:12;;;;;;;6.25;1.45;;;15.50;58.50;;;;;;5036681;28;20025;-65
2022/05/14 03:09:39;;;;;;;4.22;1.50;;;15.50;58.30;;;;;;5034727;28;20030;-65
2022/05/14 03:12:07;;;;;;;6.85;1.80;;;15.40;58.20;;;;;;5037193;28;20037;-65
2022/05/14 03:14:33;;;;;;;7.70;1.75;;;15.50;59.20;;;;;;5035625;28;20024;-65
2022/05/14 03:16:59;;;;;;;5.15;1.40;;;15.50;58.20;;;;;;5033572;28;20122;-65
2022/05/14 03:19:25;;;;;;;5.32;1.58;;;15.50;58.20;;;;;;5035407;28;20461;-65
2022/05/14 03:21:51;;;;;;;11.00;1.88;;;15.50;58.20;;;;;;5036823;28;20033;-65
2022/05/14 03:24:17;;;;;;;6.35;1.60;;;15.50;58.20;;;;;;5036931;28;20064;-65
2022/05/14 03:26:43;;;;;;;4.85;1.88;;;15.50;58.30;;;;;;5040162;28;20025;-65
2022/05/14 03:29:10;;;;;;;7.47;1.73;;;15.50;58.40;;;;;;5031760;28;20038;-66
2022/05/14 03:31:37;;;;;;;6.15;1.92;;;15.50;58.50;;;;;;5044970;28;20100;-65
2022/05/14 03:34:03;;;;;;;7.68;1.90;;;15.50;58.50;;;;;;5045320;28;20116;-64
2022/05/14 03:36:36;;;;;;;4.78;1.70;;;15.60;58.60;;;;;;5044997;28;20027;-64
2022/05/14 03:39:02;;;;;;;6.78;1.80;;;15.60;58.80;;;;;;5049220;28;20029;-64
2022/05/14 03:41:31;;;;;;;6.97;1.80;;;15.60;59.10;;;;;;5045811;28;20053;-65
2022/05/14 03:43:57;;;;;;;4.80;1.80;;;15.60;59.40;;;;;;5033343;28;20038;-65
2022/05/14 03:46:23;;;;;;;5.45;1.80;;;15.60;59.60;;;;;;5034472;28;20049;-65
2022/05/14 03:48:49;;;;;;;4.57;1.85;;;15.60;60.10;;;;;;5037593;28;20775;-65
2022/05/14 03:51:15;;;;;;;4.93;1.60;;;15.60;60.50;;;;;;5043260;28;20028;-65
2022/05/14 03:53:41;;;;;;;5.53;1.80;;;15.60;60.70;;;;;;5042024;28;20040;-64
2022/05/14 03:56:07;;;;;;;4.82;1.80;;;15.60;60.80;;;;;;5036623;28;20029;-65
2022/05/14 03:58:33;;;;;;;6.13;1.83;;;15.60;60.80;;;;;;5039569;28;20040;-65
2022/05/14 04:00:59;;;;;;;6.40;2.00;;;15.60;60.60;;;;;;5034180;28;20083;-65
2022/05/14 04:03:25;;;;;;;6.82;1.90;;;15.60;60.60;;;;;;5036991;28;20043;-65
2022/05/14 04:05:50;;;;;;;5.93;1.80;;;15.60;60.70;;;;;;5045111;28;20025;-65
2022/05/14 04:08:17;;;;;;;5.95;1.85;;;14.90;60.30;;;;;;5031461;28;20041;-65
2022/05/14 04:10:43;;;;;;;7.05;2.05;;;15.70;60.90;;;;;;5034940;28;20021;-65
2022/05/14 04:13:09;;;;;;;10.90;2.15;;;15.70;60.90;;;;;;5033970;28;20428;-65
2022/05/14 04:15:35;;;;;;;6.22;1.95;;;15.70;61.00;;;;;;5037297;28;20032;-65
2022/05/14 04:18:01;;;;;;;5.97;1.80;;;15.70;61.20;;;;;;5031703;28;20504;-65
2022/05/14 04:20:26;;;;;;;7.47;2.30;;;15.70;61.20;;;;;;5030238;28;20570;-65
2022/05/14 04:22:52;;;;;;;12.25;2.30;;;15.70;61.20;;;;;;5030891;28;20038;-65
2022/05/14 04:25:18;;;;;;;8.20;2.30;;;15.70;61.10;;;;;;5033797;28;20081;-65
2022/05/14 04:27:45;;;;;;;4.38;2.20;;;15.70;61.10;;;;;;5036339;28;20128;-65
2022/05/14 04:30:12;;;;;;;11.45;2.33;;;15.70;61.00;;;;;;5033149;28;20066;-65
2022/05/14 04:32:37;;;;;;;6.28;2.00;;;15.70;61.10;;;;;;5033681;28;20040;-65
2022/05/14 04:35:05;;;;;;;9.18;2.40;;;15.80;61.00;;;;;;5040230;28;20048;-66
2022/05/14 04:37:31;;;;;;;10.88;2.10;;;15.80;61.20;;;;;;5035260;28;20404;-65
2022/05/14 04:39:57;;;;;;;6.15;2.03;;;15.80;61.40;;;;;;5042120;28;20025;-65
2022/05/14 04:42:22;;;;;;;11.90;2.50;;;15.80;61.50;;;;;;5041734;28;20059;-64
2022/05/14 04:44:48;;;;;;;7.45;2.17;;;15.80;61.50;;;;;;5033800;28;20029;-65
2022/05/14 04:47:16;;;;;;;10.02;2.00;;;15.80;61.50;;;;;;5043787;28;20079;-65
2022/05/14 04:49:47;;;;;;;6.18;2.05;;;15.80;61.80;;;;;;5031095;28;20488;-65
2022/05/14 04:52:13;;;;;;;6.47;2.13;;;15.80;61.90;;;;;;5034350;28;20850;-65
2022/05/14 04:54:38;;;;;;;6.53;2.17;;;15.80;61.80;;;;;;5033513;28;20148;-64
2022/05/14 04:57:05;;;;;;;7.35;2.00;;;15.90;61.70;;;;;;5034943;28;20036;-65
2022/05/14 04:59:32;;;;;;;8.02;2.10;;;15.90;61.70;;;;;;5051746;28;20416;-65
2022/05/14 05:04:44;;;;;;;5.57;2.40;;;16.00;61.50;;;;;;5044124;28;20040;-65
2022/05/14 05:07:10;;;;;;;4.95;1.85;;;16.00;61.60;;;;;;5038645;28;20034;-65
2022/05/14 05:09:37;;;;;;;5.82;2.15;;;15.90;61.50;;;;;;5039463;28;20022;-65
2022/05/14 05:12:03;;;;;;;5.50;2.20;;;16.00;61.50;;;;;;5034555;28;20476;-65
2022/05/14 05:14:29;;;;;;;9.75;2.30;;;16.00;61.50;;;;;;5032621;28;20474;-65
2022/05/14 05:16:55;;;;;;;7.13;2.20;;;16.00;61.50;;;;;;5043654;28;20048;-66
2022/05/14 05:19:20;;;;;;;10.40;2.25;;;16.10;61.60;;;;;;5039113;28;20037;-65
2022/05/14 05:21:47;;;;;;;8.98;2.35;;;16.10;61.50;;;;;;5042727;28;20039;-65
2022/05/14 05:24:13;;;;;;;10.43;2.50;;;16.10;61.30;;;;;;5042955;28;20026;-65
2022/05/14 05:26:38;;;;;;;8.10;2.05;;;16.20;61.30;;;;;;5033231;28;20032;-65
2022/05/14 05:29:05;;;;;;;6.88;2.80;;;16.20;61.30;;;;;;5043019;28;20048;-65
2022/05/14 05:31:41;;;;;;;11.95;2.75;;;16.20;61.10;;;;;;5038753;28;20029;-64
2022/05/14 05:34:08;;;;;;;7.63;2.90;;;16.20;61.70;;;;;;5033776;28;20025;-64
2022/05/14 05:36:34;;;;;;;9.55;3.30;;;16.30;61.30;;;;;;5041883;28;20037;-64
2022/05/14 05:39:00;;;;;;;7.18;2.40;;;16.30;60.90;;;;;;5038960;28;20692;-64
2022/05/14 05:41:26;;;;;;;10.82;4.25;;;16.40;61.00;;;;;;5026143;28;20725;-65
2022/05/14 05:43:51;;;;;;;12.07;3.90;;;16.50;61.10;;;;;;5027022;28;20049;-66
2022/05/14 05:46:17;;;;;;;5.57;2.28;;;16.50;60.90;;;;;;5024393;28;20999;-66
2022/05/14 05:48:44;;;;;;;13.70;3.53;;;16.60;61.40;;;;;;5024596;28;20142;-65
2022/05/14 05:51:10;;;;;;;10.20;2.60;;;16.60;61.80;;;;;;5027846;28;20056;-65
2022/05/14 05:59:06;;;;;;;8.52;2.22;;;16.60;62.20;;;;;;5036406;28;20503;-65
2022/05/14 06:01:32;;;;;;;9.77;3.15;;;16.60;62.80;;;;;;5050263;28;20483;-65
2022/05/14 06:03:58;;;;;;;10.20;2.50;;;16.60;62.50;;;;;;5042450;28;20496;-65
2022/05/14 06:06:25;;;;;;;7.80;2.50;;;16.60;62.60;;;;;;5041267;28;20026;-64
2022/05/14 06:08:51;;;;;;;7.95;2.40;;;16.60;62.40;;;;;;5042615;28;20033;-65
2022/05/14 06:11:17;;;;;;;9.15;2.10;;;16.70;62.40;;;;;;5033559;28;20371;-65
2022/05/14 06:13:44;;;;;;;8.65;2.20;;;16.80;61.90;;;;;;5030975;28;20037;-66
2022/05/14 06:16:11;;;;;;;10.15;2.33;;;17.00;61.80;;;;;;5029762;28;20025;-64
2022/05/14 06:18:37;;;;;;;9.70;2.45;;;17.10;61.30;;;;;;5033218;28;20041;-64
2022/05/14 06:21:07;;;;;;;6.50;2.00;;;17.20;60.90;;;;;;5032861;28;20108;-65
2022/05/14 06:23:33;;;;;;;9.95;2.47;;;17.30;60.30;;;;;;5031646;28;20103;-65
2022/05/14 06:25:59;;;;;;;8.45;2.17;;;17.30;60.00;;;;;;5033387;28;20026;-65
2022/05/14 06:28:25;;;;;;;9.93;2.40;;;17.50;59.50;;;;;;5037918;28;20100;-64
2022/05/14 06:30:51;;;;;;;10.45;2.05;;;17.60;59.00;;;;;;5039494;28;20021;-64
2022/05/14 06:33:19;;;;;;;9.00;2.47;;;18.10;57.50;;;;;;5040974;28;20490;-64
2022/05/14 06:35:45;;;;;;;7.72;2.03;;;18.80;54.50;;;;;;5036038;28;20025;-65
2022/05/14 06:38:13;;;;;;;5.90;2.50;;;19.20;52.70;;;;;;5041740;28;20032;-65
2022/05/14 06:40:41;;;;;;;5.45;2.10;;;19.90;50.60;;;;;;5031447;28;20512;-66
2022/05/14 06:43:08;;;;;;;13.95;2.40;;;20.50;48.50;;;;;;5035083;28;20044;-65
2022/05/14 06:45:34;;;;;;;9.80;2.00;;;21.10;46.50;;;;;;5037110;28;20032;-66
2022/05/14 06:48:00;;;;;;;6.00;2.15;;;21.30;44.50;;;;;;5046391;28;20029;-65
2022/05/14 06:50:29;;;;;;;9.98;2.10;;;21.60;43.70;;;;;;5033486;28;20075;-64
2022/05/14 06:53:00;;;;;;;7.47;1.90;;;22.20;41.90;;;;;;5042864;28;20121;-65
2022/05/14 06:55:32;;;;;;;4.85;1.80;;;22.70;41.00;;;;;;5044262;28;20033;-65
2022/05/14 06:57:58;;;;;;;6.28;1.98;;;23.10;40.40;;;;;;5041940;28;20439;-65
2022/05/14 07:00:24;;;;;;;10.57;2.05;;;23.30;39.40;;;;;;5037226;28;20121;-65
2022/05/14 07:02:50;;;;;;;7.95;1.98;;;23.40;38.30;;;;;;5043352;28;20038;-66
2022/05/14 07:08:02;;;;;;;6.72;1.85;;;23.20;38.80;;;;;;5049859;28;20089;-65
2022/05/14 07:10:28;;;;;;;5.80;1.67;;;23.70;38.10;;;;;;5035606;28;20036;-64
2022/05/14 07:12:55;;;;;;;7.03;1.55;;;23.70;37.10;;;;;;5036971;28;20026;-65
2022/05/14 07:15:22;;;;;;;7.47;1.65;;;23.40;37.40;;;;;;5042048;28;20381;-65
2022/05/14 07:17:48;;;;;;;7.30;1.60;;;23.30;37.80;;;;;;5043370;28;20057;-66
2022/05/14 07:20:14;;;;;;;6.25;1.63;;;23.20;38.20;;;;;;5030655;28;20085;-65
2022/05/14 07:22:39;;;;;;;4.55;1.65;;;23.00;39.80;;;;;;5031893;28;20064;-65
2022/05/14 07:25:05;;;;;;;7.78;1.70;;;22.80;40.20;;;;;;5036468;28;20032;-65
2022/05/14 07:27:31;;;;;;;5.90;1.75;;;22.60;40.10;;;;;;5038907;28;20657;-65
2022/05/14 07:29:57;;;;;;;5.68;1.50;;;22.40;40.90;;;;;;5034218;28;20029;-65
2022/05/14 07:32:23;;;;;;;4.65;1.40;;;22.40;40.80;;;;;;5046473;28;20131;-65
2022/05/14 07:34:48;;;;;;;4.75;1.48;;;22.30;40.00;;;;;;5048971;28;20035;-66
2022/05/14 07:37:33;;;;;;;7.43;1.73;;;22.20;40.70;;;;;;5045669;28;20055;-67
2022/05/14 07:40:06;;;;;;;7.68;1.98;;;22.10;40.20;;;;;;5038096;28;20026;-66
2022/05/14 07:42:49;;;;;;;5.45;1.60;;;22.00;40.60;;;;;;5038385;28;20072;-66
2022/05/14 07:45:32;;;;;;;8.50;2.10;;;22.00;41.30;;;;;;5043682;28;20033;-66
2022/05/14 07:48:01;;;;;;;5.15;1.30;;;22.00;41.40;;;;;;5045607;28;20578;-66
2022/05/14 07:50:28;;;;;;;6.78;1.50;;;22.10;40.50;;;;;;5033788;28;20400;-67
2022/05/14 07:52:54;;;;;;;6.80;1.40;;;22.10;40.20;;;;;;5041169;28;20028;-67
2022/05/14 07:55:20;;;;;;;55.53;3.65;;;22.10;40.90;;;;;;5040866;28;20025;-67
2022/05/14 07:57:46;;;;;;;5.75;1.50;;;22.20;41.30;;;;;;5040347;28;20489;-65
2022/05/14 08:00:12;;;;;;;6.45;1.63;;;22.30;40.40;;;;;;5041741;28;20079;-65
2022/05/14 08:02:41;;;;;;;8.02;1.90;;;22.40;40.80;;;;;;5040415;28;20099;-65
2022/05/14 08:05:09;;;;;;;8.73;1.77;;;22.60;40.90;;;;;;5045860;28;20104;-66
2022/05/14 08:07:35;;;;;;;5.38;1.63;;;22.70;39.60;;;;;;5041597;28;20033;-68
2022/05/14 08:10:01;;;;;;;5.75;1.60;;;22.70;38.80;;;;;;5033464;28;20040;-66
2022/05/14 08:12:34;;;;;;;6.18;1.65;;;22.80;38.80;;;;;;5034711;28;20037;-66
2022/05/14 08:14:59;;;;;;;7.85;1.92;;;22.90;38.70;;;;;;5036507;28;20036;-67
2022/05/14 08:17:26;;;;;;;6.78;1.92;;;22.90;38.60;;;;;;5044043;28;20025;-68
2022/05/14 08:19:52;;;;;;;6.72;2.00;;;23.10;38.40;;;;;;5043959;28;20036;-68
2022/05/14 08:25:02;;;;;;;6.05;1.40;;;23.60;37.70;;;;;;5041179;28;20036;-67
2022/05/14 08:27:28;;;;;;;5.63;1.60;;;23.80;36.80;;;;;;5033243;28;20488;-67
2022/05/14 08:29:54;;;;;;;6.88;1.55;;;24.00;37.00;;;;;;5033867;28;20022;-66
2022/05/14 08:32:21;;;;;;;4.22;1.35;;;23.90;36.20;;;;;;5043857;28;20028;-67
2022/05/14 08:34:49;;;;;;;5.68;1.27;;;24.00;36.30;;;;;;5042246;28;20053;-67
2022/05/14 08:37:15;;;;;;;6.13;1.50;;;24.00;36.40;;;;;;5043460;28;20036;-66
2022/05/14 08:39:40;;;;;;;8.07;1.60;;;24.10;36.70;;;;;;5036819;28;20079;-66
2022/05/14 08:42:11;;;;;;;7.90;1.35;;;24.30;37.10;;;;;;5042880;28;20088;-66
2022/05/14 08:44:40;;;;;;;8.23;1.30;;;24.20;37.00;;;;;;5038349;28;20051;-66
2022/05/14 08:47:22;;;;;;;5.50;1.38;;;24.40;36.60;;;;;;5043750;28;20447;-66
2022/05/14 08:49:51;;;;;;;5.72;1.35;;;24.50;36.40;;;;;;5034264;28;20064;-67
2022/05/14 08:52:21;;;;;;;6.53;1.30;;;24.80;35.90;;;;;;5032947;28;20032;-66
2022/05/14 08:54:47;;;;;;;4.75;1.35;;;24.80;35.70;;;;;;5036472;28;20029;-66
2022/05/14 08:57:42;;;;;;;5.22;1.20;;;24.90;35.30;;;;;;5035599;28;20057;-66
2022/05/14 09:00:09;;;;;;;7.72;1.50;;;24.90;35.50;;;;;;5032848;28;20148;-67
2022/05/14 09:02:36;;;;;;;6.95;1.10;;;25.10;35.40;;;;;;5028037;28;20103;-67
2022/05/14 09:05:20;;;;;;;8.10;1.60;;;25.10;35.00;;;;;;5032809;28;20027;-67
2022/05/14 09:07:48;;;;;;;7.13;1.20;;;25.30;35.10;;;;;;5031042;28;20033;-66
2022/05/14 09:10:24;;;;;;;7.40;1.50;;;25.30;34.40;;;;;;5039475;28;20033;-67
2022/05/14 09:12:57;;;;;;;6.45;1.38;;;25.50;34.50;;;;;;5033177;28;20514;-67
2022/05/14 09:15:27;;;;;;;7.93;1.50;;;25.60;33.80;;;;;;5035710;28;20062;-67
2022/05/14 09:18:09;;;;;;;7.23;1.27;;;25.80;33.60;;;;;;5029243;28;20031;-68
2022/05/14 09:20:47;;;;;;;8.05;1.48;;;25.90;33.40;;;;;;5037470;28;20497;-67
2022/05/14 09:23:33;;;;;;;5.50;1.50;;;26.00;33.30;;;;;;5029727;28;20455;-67
2022/05/14 09:26:32;;;;;;;6.03;1.30;;;26.00;32.80;;;;;;5043248;28;20074;-67
2022/05/14 09:29:11;;;;;;;46.17;2.90;;;25.90;32.80;;;;;;5030773;28;20107;-67
2022/05/14 09:32:21;;;;;;;5.38;1.45;;;25.80;33.40;;;;;;5043653;28;20029;-66
2022/05/14 09:34:48;;;;;;;5.80;1.50;;;25.60;33.20;;;;;;5035518;28;20064;-67
2022/05/14 09:37:20;;;;;;;6.30;1.33;;;25.80;33.30;;;;;;5038723;28;20025;-66
2022/05/14 09:39:59;;;;;;;4.78;1.45;;;25.90;33.20;;;;;;5038715;28;20026;-66
2022/05/14 09:42:30;;;;;;;4.00;1.10;;;26.20;33.20;;;;;;5040647;28;20045;-67
2022/05/14 09:44:57;;;;;;;5.43;1.17;;;26.50;32.10;;;;;;5040102;28;20431;-67
2022/05/14 09:47:33;;;;;;;4.68;1.30;;;26.60;31.40;;;;;;5043836;28;20083;-66
2022/05/14 09:50:03;;;;;;;8.65;1.30;;;26.80;32.30;;;;;;5034861;28;20017;-67
2022/05/14 09:52:32;;;;;;;5.93;1.40;;;27.00;31.80;;;;;;5031763;28;20524;-67
2022/05/14 09:55:01;;;;;;;6.32;1.20;;;27.30;31.00;;;;;;5034796;28;20037;-67
2022/05/14 09:57:45;;;;;;;6.10;1.20;;;27.40;30.30;;;;;;5037302;28;20101;-67
2022/05/14 10:00:13;;;;;;;5.07;1.30;;;27.30;30.50;;;;;;5029935;28;20017;-67
2022/05/14 10:02:44;;;;;;;6.55;1.27;;;27.60;31.40;;;;;;5031231;28;20487;-66
2022/05/14 10:05:29;;;;;;;6.57;1.10;;;28.00;29.50;;;;;;5030221;28;20022;-67
2022/05/14 10:08:10;;;;;;;6.57;1.48;;;28.00;28.50;;;;;;5030910;28;20033;-66
2022/05/14 10:11:13;;;;;;;5.90;1.13;;;27.90;30.00;;;;;;5032772;28;20048;-66
2022/05/14 10:13:45;;;;;;;6.90;1.20;;;28.10;29.20;;;;;;5031071;28;20021;-66
2022/05/14 10:16:38;;;;;;;5.63;1.20;;;28.20;29.00;;;;;;5037425;28;20048;-66
2022/05/14 10:19:22;;;;;;;6.85;1.40;;;28.30;28.90;;;;;;5043004;28;20029;-67
2022/05/14 10:22:13;;;;;;;6.03;1.38;;;28.50;28.80;;;;;;5041275;28;20033;-67
2022/05/14 10:27:47;;;;;;;6.40;1.50;;;28.90;28.00;;;;;;5039635;28;20483;-68
2022/05/14 10:30:22;;;;;;;4.63;1.40;;;29.00;27.70;;;;;;5042770;28;20057;-67
2022/05/14 10:33:07;;;;;;;6.82;1.33;;;29.20;27.40;;;;;;5035399;28;20111;-67
2022/05/14 10:35:54;;;;;;;7.32;1.55;;;29.40;27.30;;;;;;5032735;28;20021;-67
2022/05/14 10:38:30;;;;;;;6.93;1.30;;;29.60;27.50;;;;;;5029536;28;20033;-67
2022/05/14 10:41:02;;;;;;;6.32;1.20;;;29.70;26.90;;;;;;5036595;28;20084;-67
2022/05/14 10:43:54;;;;;;;6.57;1.30;;;29.70;26.20;;;;;;5034006;28;20049;-66
2022/05/14 10:46:22;;;;;;;5.55;1.13;;;29.80;26.60;;;;;;5045272;28;20070;-67
2022/05/14 10:48:57;;;;;;;8.40;1.58;;;29.90;25.90;;;;;;5046455;28;20610;-66
2022/05/14 10:51:29;;;;;;;5.28;1.10;;;30.00;26.30;;;;;;5041543;28;20041;-66
2022/05/14 10:53:55;;;;;;;9.73;1.50;;;30.20;26.00;;;;;;5037265;28;20021;-67
2022/05/14 10:56:56;;;;;;;6.22;1.20;;;30.40;25.80;;;;;;5040654;28;20477;-67
2022/05/14 10:59:41;;;;;;;;;;;30.90;25.50;;;;;;5041344;28;20037;-67
2022/05/14 11:02:25;;;;;;;5.82;1.20;;;31.20;25.30;;;;;;5046202;28;20308;-67
2022/05/14 11:04:51;;;;;;;8.73;1.20;;;31.50;24.90;;;;;;5049716;28;20048;-69
2022/05/14 11:07:44;;;;;;;6.63;1.40;;;31.80;25.10;;;;;;5041124;28;20175;-68
2022/05/14 11:10:09;;;;;;;7.35;1.40;;;32.10;24.60;;;;;;5042743;28;20040;-67
2022/05/14 11:12:37;;;;;;;8.40;1.50;;;32.50;24.00;;;;;;5039625;28;20044;-67
2022/05/14 11:15:16;;;;;;;8.65;1.40;;;32.80;23.80;;;;;;5038955;28;20163;-68
2022/05/14 11:17:42;;;;;;;6.97;1.33;;;33.00;23.00;;;;;;5038515;28;20583;-68
2022/05/14 11:20:15;;;;;;;6.72;1.42;;;33.30;23.10;;;;;;5043845;28;20150;-68
2022/05/14 11:22:45;;;;;;;5.32;1.30;;;33.50;22.70;;;;;;5041911;28;20128;-67
2022/05/14 11:25:17;;;;;;;9.50;1.40;;;33.60;22.10;;;;;;5034753;28;20021;-67
2022/05/14 11:27:58;;;;;;;10.68;1.33;;;33.60;22.10;;;;;;5039499;28;20032;-67
2022/05/14 11:30:41;;;;;;;5.10;1.40;;;33.20;22.80;;;;;;5038661;28;20037;-67
2022/05/14 11:33:27;;;;;;;6.13;1.40;;;33.10;23.30;;;;;;5044372;28;20079;-67
2022/05/14 11:35:59;;;;;;;5.20;1.33;;;32.70;24.70;;;;;;5037556;28;20032;-68
2022/05/14 11:38:25;;;;;;;9.93;1.50;;;32.60;23.90;;;;;;5043752;28;20051;-67
2022/05/14 11:41:04;;;;;;;7.55;1.60;;;32.90;24.20;;;;;;5035273;28;20045;-67
2022/05/14 11:43:34;;;;;;;4.40;1.30;;;32.80;23.50;;;;;;5037751;28;20037;-66
2022/05/14 11:46:06;;;;;;;7.35;1.55;;;32.90;24.20;;;;;;5037608;28;20025;-67
2022/05/14 11:48:44;;;;;;;5.80;1.55;;;32.60;25.40;;;;;;5034110;28;20518;-67
2022/05/14 11:51:41;;;;;;;5.65;1.45;;;31.80;25.50;;;;;;5033706;28;20034;-67
2022/05/14 11:54:14;;;;;;;6.28;1.48;;;32.10;25.00;;;;;;5043147;28;20447;-67
2022/05/14 11:56:55;;;;;;;6.75;1.45;;;33.00;24.60;;;;;;5041793;28;20468;-67
2022/05/14 11:59:47;;;;;;;5.30;1.48;;;34.30;22.80;;;;;;5041120;28;20968;-68
2022/05/14 12:02:20;;;;;;;5.78;1.52;;;35.40;22.40;;;;;;5029057;28;20063;-68
2022/05/14 12:04:52;;;;;;;6.97;1.70;;;35.10;22.20;;;;;;5041286;28;20069;-67
2022/05/14 12:07:29;;;;;;;11.32;1.67;;;33.90;23.70;;;;;;5042526;28;20033;-67
2022/05/14 12:10:05;;;;;;;8.00;1.50;;;32.60;24.60;;;;;;5036797;28;20025;-68
2022/05/14 12:12:57;;;;;;;5.22;1.45;;;31.70;25.80;;;;;;5038455;28;20178;-67
2022/05/14 12:15:24;;;;;;;6.97;1.52;;;32.00;25.80;;;;;;5043140;28;20132;-67
2022/05/14 12:17:55;;;;;;;6.68;1.80;;;30.90;26.80;;;;;;5039355;28;20033;-67
2022/05/14 12:20:28;;;;;;;8.65;1.70;;;30.80;27.80;;;;;;5043196;28;20600;-67
2022/05/14 12:23:00;;;;;;;6.47;1.60;;;32.10;26.20;;;;;;5046895;28;20044;-67
2022/05/14 12:25:35;;;;;;;6.70;1.52;;;33.20;25.20;;;;;;5040631;28;20428;-67
2022/05/14 12:28:01;;;;;;;9.40;1.50;;;34.10;24.10;;;;;;5042914;28;20028;-68
2022/05/14 12:33:18;;;;;;;8.68;1.70;;;35.50;22.40;;;;;;5028613;28;20397;-66
2022/05/14 12:35:53;;;;;;;7.18;1.40;;;36.10;21.80;;;;;;5037265;28;20546;-66
2022/05/14 12:38:27;;;;;;;7.20;1.60;;;36.10;21.80;;;;;;5037839;28;20481;-65
2022/05/14 12:40:53;;;;;;;6.45;1.60;;;36.00;22.00;;;;;;5044558;28;20155;-65
2022/05/14 12:43:19;;;;;;;6.28;1.50;;;35.60;21.90;;;;;;5033852;28;20132;-66
2022/05/14 12:46:08;;;;;;;7.60;1.60;;;36.20;22.00;;;;;;5031352;28;20108;-66
2022/05/14 12:48:46;;;;;;;8.32;1.50;;;36.70;21.50;;;;;;5036565;28;20029;-66
2022/05/14 12:51:21;;;;;;;5.43;1.48;;;37.20;21.20;;;;;;5042109;28;20082;-67
2022/05/14 12:53:47;;;;;;;5.22;1.25;;;37.70;21.10;;;;;;5044478;28;20192;-67
2022/05/14 12:56:15;;;;;;;5.80;1.52;;;36.80;22.00;;;;;;5036836;28;20064;-68
2022/05/14 12:58:42;;;;;;;5.28;1.88;;;36.80;21.20;;;;;;5030488;28;20029;-68
2022/05/14 13:01:09;;;;;;;7.03;1.60;;;36.80;21.30;;;;;;5037668;28;20029;-69
2022/05/14 13:04:00;;;;;;;5.75;1.55;;;36.40;22.00;;;;;;5033095;28;20128;-68
2022/05/14 13:06:29;;;;;;;5.85;1.35;;;36.40;21.60;;;;;;5041406;28;20063;-68
2022/05/14 13:08:57;;;;;;;;;;;36.30;21.60;;;;;;5044486;28;20029;-68
2022/05/14 13:11:26;;;;;;;4.57;1.40;;;36.00;22.10;;;;;;5040215;28;20376;-68
2022/05/14 13:14:09;;;;;;;7.43;1.80;;;35.40;22.40;;;;;;5034037;28;20033;-68
2022/05/14 13:16:34;;;;;;;7.25;1.48;;;35.60;22.50;;;;;;5033235;28;20496;-68
2022/05/14 13:19:21;;;;;;;4.82;1.60;;;36.00;21.80;;;;;;5037012;28;20036;-68
2022/05/14 13:21:52;;;;;;;8.75;1.60;;;35.90;22.10;;;;;;5033660;28;20047;-68
2022/05/14 13:24:28;;;;;;;5.57;1.50;;;36.00;22.50;;;;;;5041893;28;20041;-68
2022/05/14 13:26:59;;;;;;;7.40;1.50;;;35.60;22.80;;;;;;5037724;28;20495;-68